עמוד ראשי
METAR-TAF:

METAR-TAF

שדות תעופה :

Port Alsworth, אלסקה, ארצות הברית

קו רוחב: 60-12N, קו אורך: 154-19W, גובה: 85מטר

תצפית מזג אוויר נוכחית

הדו"ח נערך לפני 7 שעות ו 17דקות, בשעה 02:54 UTC
רוח רגועה
טמפרטורת 15 צלסיוס
לחות 88%
לחץ 1012 hPa
ראות: 48.3קילומטר
עננים בינוניים בגובה 6000רגל
מעונן בגובה 10000רגל

METAR: PALJ 120254Z 00000KT 30SM BKN060 OVC100 15/13 A2988 RMK LAST REPORT EST PASS OPEN NO SPECI

זמן: 02:11 (10:11 UTC)


TAF: חסר

תצפיות ותחזיות מזג אוויר לגבי יותר מ- 4,000 שדות תעופה ברחבי העולם. דוחות METAR ו- TAF.

התחנות הזמינות מסומנות בנקודות צהובות ואדומות על גבי המפה.

העבר את העכבר לנקודה הצבעונית על מנת לראות את שם התחנה.

לאחר מכן, לחץ כדי לראות את תוכן ואת תחזיות מזג האוויר.

כדי לשנות את המפה: לחץ על הכפתורים הירוקים עם הפלוס השחור כדי להתקרב; על הכפתור הירוק עם המקף כדי להתרחק; או בחיצים הירוקים למפות סמוכות.


METAR-TAF: